sensor_id;sensor_type;location;lat;lon;timestamp;pressure;altitude;pressure_sealevel;temperature;humidity
48862;BME280;34681;49.188;-0.374;2022-07-21T00:01:50;101788.97;;;24.61;55.09
48862;BME280;34681;49.188;-0.374;2022-07-21T00:04:16;101790.03;;;24.53;55.25
48862;BME280;34681;49.188;-0.374;2022-07-21T00:06:42;101793.03;;;24.45;55.63
48862;BME280;34681;49.188;-0.374;2022-07-21T00:09:08;101791.28;;;24.37;56.04
48862;BME280;34681;49.188;-0.374;2022-07-21T00:11:34;101802.06;;;24.34;56.04
48862;BME280;34681;49.188;-0.374;2022-07-21T00:14:00;101795.56;;;24.27;56.21
48862;BME280;34681;49.188;-0.374;2022-07-21T00:16:25;101802.22;;;24.26;55.92
48862;BME280;34681;49.188;-0.374;2022-07-21T00:18:50;101795.75;;;24.19;56.11
48862;BME280;34681;49.188;-0.374;2022-07-21T00:21:16;101801.97;;;24.14;56.30
48862;BME280;34681;49.188;-0.374;2022-07-21T00:23:41;101815.97;;;24.21;55.85
48862;BME280;34681;49.188;-0.374;2022-07-21T00:26:07;101810.16;;;24.22;56.05
48862;BME280;34681;49.188;-0.374;2022-07-21T00:28:32;101814.03;;;24.21;55.81
48862;BME280;34681;49.188;-0.374;2022-07-21T00:30:57;101812.94;;;24.16;56.13
48862;BME280;34681;49.188;-0.374;2022-07-21T00:33:23;101814.69;;;24.17;55.92
48862;BME280;34681;49.188;-0.374;2022-07-21T00:35:48;101814.22;;;24.13;55.94
48862;BME280;34681;49.188;-0.374;2022-07-21T00:38:14;101818.06;;;24.05;56.41
48862;BME280;34681;49.188;-0.374;2022-07-21T00:40:39;101820.25;;;24.10;56.07
48862;BME280;34681;49.188;-0.374;2022-07-21T00:43:05;101814.22;;;24.13;55.90
48862;BME280;34681;49.188;-0.374;2022-07-21T00:45:30;101808.59;;;24.06;56.20
48862;BME280;34681;49.188;-0.374;2022-07-21T00:47:56;101813.75;;;24.03;56.38
48862;BME280;34681;49.188;-0.374;2022-07-21T00:50:22;101809.03;;;24.03;55.91
48862;BME280;34681;49.188;-0.374;2022-07-21T00:52:48;101814.84;;;24.02;56.17
48862;BME280;34681;49.188;-0.374;2022-07-21T00:55:16;101809.47;;;24.00;55.81
48862;BME280;34681;49.188;-0.374;2022-07-21T00:57:42;101807.53;;;24.01;55.94
48862;BME280;34681;49.188;-0.374;2022-07-21T01:00:11;101804.50;;;23.96;55.93
48862;BME280;34681;49.188;-0.374;2022-07-21T01:02:37;101808.34;;;23.95;56.25
48862;BME280;34681;49.188;-0.374;2022-07-21T01:05:05;101793.91;;;23.91;56.22
48862;BME280;34681;49.188;-0.374;2022-07-21T01:07:31;101801.88;;;23.88;56.32
48862;BME280;34681;49.188;-0.374;2022-07-21T01:09:56;101809.16;;;23.82;56.27
48862;BME280;34681;49.188;-0.374;2022-07-21T01:12:22;101811.69;;;23.70;56.96
48862;BME280;34681;49.188;-0.374;2022-07-21T01:14:47;101816.25;;;23.78;56.50
48862;BME280;34681;49.188;-0.374;2022-07-21T01:17:13;101813.88;;;23.75;56.63
48862;BME280;34681;49.188;-0.374;2022-07-21T01:19:38;101818.16;;;23.71;56.82
48862;BME280;34681;49.188;-0.374;2022-07-21T01:22:04;101814.91;;;23.67;56.91
48862;BME280;34681;49.188;-0.374;2022-07-21T01:24:30;101823.94;;;23.69;56.82
48862;BME280;34681;49.188;-0.374;2022-07-21T01:26:55;101815.09;;;23.66;57.13
48862;BME280;34681;49.188;-0.374;2022-07-21T01:29:21;101817.25;;;23.64;57.01
48862;BME280;34681;49.188;-0.374;2022-07-21T01:31:48;101821.97;;;23.63;57.23
48862;BME280;34681;49.188;-0.374;2022-07-21T01:34:14;101816.59;;;23.62;57.36
48862;BME280;34681;49.188;-0.374;2022-07-21T01:36:39;101818.03;;;23.58;57.31
48862;BME280;34681;49.188;-0.374;2022-07-21T01:39:06;101819.31;;;23.55;57.81
48862;BME280;34681;49.188;-0.374;2022-07-21T01:41:51;101820.59;;;23.52;57.72
48862;BME280;34681;49.188;-0.374;2022-07-21T01:44:16;101813.06;;;23.53;57.59
48862;BME280;34681;49.188;-0.374;2022-07-21T01:46:45;101814.59;;;23.55;57.76
48862;BME280;34681;49.188;-0.374;2022-07-21T01:49:13;101807.28;;;23.54;57.75
48862;BME280;34681;49.188;-0.374;2022-07-21T01:51:38;101813.72;;;23.55;57.55
48862;BME280;34681;49.188;-0.374;2022-07-21T01:54:05;101810.28;;;23.53;57.64
48862;BME280;34681;49.188;-0.374;2022-07-21T01:56:32;101808.34;;;23.53;57.81
48862;BME280;34681;49.188;-0.374;2022-07-21T01:58:58;101812.66;;;23.56;57.89
48862;BME280;34681;49.188;-0.374;2022-07-21T02:01:25;101811.59;;;23.57;57.92
48862;BME280;34681;49.188;-0.374;2022-07-21T02:03:55;101811.16;;;23.53;58.31
48862;BME280;34681;49.188;-0.374;2022-07-21T02:06:21;101809.66;;;23.58;58.19
48862;BME280;34681;49.188;-0.374;2022-07-21T02:08:47;101818.03;;;23.58;58.14
48862;BME280;34681;49.188;-0.374;2022-07-21T02:11:13;101813.50;;;23.57;58.27
48862;BME280;34681;49.188;-0.374;2022-07-21T02:13:39;101817.00;;;23.59;58.54
48862;BME280;34681;49.188;-0.374;2022-07-21T02:16:05;101812.09;;;23.61;58.60
48862;BME280;34681;49.188;-0.374;2022-07-21T02:18:31;101814.66;;;23.62;58.33
48862;BME280;34681;49.188;-0.374;2022-07-21T02:20:57;101809.06;;;23.62;58.18
48862;BME280;34681;49.188;-0.374;2022-07-21T02:23:23;101809.06;;;23.62;58.63
48862;BME280;34681;49.188;-0.374;2022-07-21T02:25:49;101815.09;;;23.66;58.31
48862;BME280;34681;49.188;-0.374;2022-07-21T02:28:15;101817.50;;;23.69;58.23
48862;BME280;34681;49.188;-0.374;2022-07-21T02:30:41;101807.81;;;23.71;58.32
48862;BME280;34681;49.188;-0.374;2022-07-21T02:33:07;101817.72;;;23.67;58.20
48862;BME280;34681;49.188;-0.374;2022-07-21T02:35:33;101807.78;;;23.65;58.63
48862;BME280;34681;49.188;-0.374;2022-07-21T02:37:59;101801.38;;;23.71;58.04
48862;BME280;34681;49.188;-0.374;2022-07-21T02:40:25;101806.34;;;23.75;57.95
48862;BME280;34681;49.188;-0.374;2022-07-21T02:42:50;101799.44;;;23.71;58.05
48862;BME280;34681;49.188;-0.374;2022-07-21T02:45:16;101807.19;;;23.69;58.20
48862;BME280;34681;49.188;-0.374;2022-07-21T02:48:02;101798.59;;;23.71;57.83
48862;BME280;34681;49.188;-0.374;2022-07-21T02:50:31;101799.22;;;23.73;57.61
48862;BME280;34681;49.188;-0.374;2022-07-21T02:52:58;101798.59;;;23.71;57.91
48862;BME280;34681;49.188;-0.374;2022-07-21T02:55:26;101793.81;;;23.65;57.96
48862;BME280;34681;49.188;-0.374;2022-07-21T02:58:11;101804.38;;;23.69;57.63
48862;BME280;34681;49.188;-0.374;2022-07-21T03:00:41;101800.94;;;23.74;57.52
48862;BME280;34681;49.188;-0.374;2022-07-21T03:03:07;101802.03;;;23.73;58.02
48862;BME280;34681;49.188;-0.374;2022-07-21T03:05:33;101797.72;;;23.70;57.80
48862;BME280;34681;49.188;-0.374;2022-07-21T03:07:59;101802.44;;;23.70;57.92
48862;BME280;34681;49.188;-0.374;2022-07-21T03:10:24;101803.09;;;23.72;57.73
48862;BME280;34681;49.188;-0.374;2022-07-21T03:12:50;101797.94;;;23.69;57.79
48862;BME280;34681;49.188;-0.374;2022-07-21T03:15:15;101798.38;;;23.72;57.50
48862;BME280;34681;49.188;-0.374;2022-07-21T03:17:40;101799.44;;;23.71;57.65
48862;BME280;34681;49.188;-0.374;2022-07-21T03:20:06;101801.38;;;23.71;57.74
48862;BME280;34681;49.188;-0.374;2022-07-21T03:22:32;101804.59;;;23.74;57.79
48862;BME280;34681;49.188;-0.374;2022-07-21T03:24:57;101802.88;;;23.73;57.38
48862;BME280;34681;49.188;-0.374;2022-07-21T03:27:22;101802.88;;;23.73;57.36
48862;BME280;34681;49.188;-0.374;2022-07-21T03:29:48;101806.75;;;23.72;57.51
48862;BME280;34681;49.188;-0.374;2022-07-21T03:32:13;101805.47;;;23.68;57.32
48862;BME280;34681;49.188;-0.374;2022-07-21T03:34:38;101803.53;;;23.69;57.26
48862;BME280;34681;49.188;-0.374;2022-07-21T03:37:04;101813.84;;;23.68;57.45
48862;BME280;34681;49.188;-0.374;2022-07-21T03:39:29;101816.38;;;23.63;57.36
48862;BME280;34681;49.188;-0.374;2022-07-21T03:41:55;101806.06;;;23.64;57.31
48862;BME280;34681;49.188;-0.374;2022-07-21T03:44:20;101815.31;;;23.64;57.02
48862;BME280;34681;49.188;-0.374;2022-07-21T03:46:45;101814.06;;;23.67;56.99
48862;BME280;34681;49.188;-0.374;2022-07-21T03:49:11;101803.91;;;23.66;57.26
48862;BME280;34681;49.188;-0.374;2022-07-21T03:51:36;101812.50;;;23.64;57.12
48862;BME280;34681;49.188;-0.374;2022-07-21T03:54:01;101815.97;;;23.66;57.12
48862;BME280;34681;49.188;-0.374;2022-07-21T03:56:27;101814.91;;;23.67;57.10
48862;BME280;34681;49.188;-0.374;2022-07-21T03:58:53;101815.53;;;23.63;57.25
48862;BME280;34681;49.188;-0.374;2022-07-21T04:01:18;101822.22;;;23.68;56.96
48862;BME280;34681;49.188;-0.374;2022-07-21T04:03:43;101813.38;;;23.65;57.06
48862;BME280;34681;49.188;-0.374;2022-07-21T04:06:09;101811.00;;;23.62;57.02
48862;BME280;34681;49.188;-0.374;2022-07-21T04:08:36;101818.53;;;23.61;56.88
48862;BME280;34681;49.188;-0.374;2022-07-21T04:11:02;101822.56;;;23.59;57.04
48862;BME280;34681;49.188;-0.374;2022-07-21T04:13:27;101824.47;;;23.58;57.25
48862;BME280;34681;49.188;-0.374;2022-07-21T04:15:53;101827.03;;;23.53;57.19
48862;BME280;34681;49.188;-0.374;2022-07-21T04:18:18;101828.34;;;23.57;57.09
48862;BME280;34681;49.188;-0.374;2022-07-21T04:20:43;101825.75;;;23.55;57.06
48862;BME280;34681;49.188;-0.374;2022-07-21T04:23:09;101825.56;;;23.57;56.94
48862;BME280;34681;49.188;-0.374;2022-07-21T04:25:34;101825.38;;;23.59;56.65
48862;BME280;34681;49.188;-0.374;2022-07-21T04:28:01;101825.75;;;23.55;56.80
48862;BME280;34681;49.188;-0.374;2022-07-21T04:30:27;101823.34;;;23.46;56.89
48862;BME280;34681;49.188;-0.374;2022-07-21T04:32:52;101824.84;;;23.42;57.33
48862;BME280;34681;49.188;-0.374;2022-07-21T04:35:18;101828.75;;;23.54;56.86
48862;BME280;34681;49.188;-0.374;2022-07-21T04:37:44;101839.72;;;23.55;56.87
48862;BME280;34681;49.188;-0.374;2022-07-21T04:40:11;101839.09;;;23.53;56.98
48862;BME280;34681;49.188;-0.374;2022-07-21T04:42:38;101842.72;;;23.54;57.13
48862;BME280;34681;49.188;-0.374;2022-07-21T04:45:05;101833.75;;;23.59;56.97
48862;BME280;34681;49.188;-0.374;2022-07-21T04:47:31;101838.72;;;23.63;56.75
48862;BME280;34681;49.188;-0.374;2022-07-21T04:49:56;101840.66;;;23.63;56.86
48862;BME280;34681;49.188;-0.374;2022-07-21T04:52:22;101833.06;;;23.57;57.05
48862;BME280;34681;49.188;-0.374;2022-07-21T04:54:47;101840.16;;;23.52;57.46
48862;BME280;34681;49.188;-0.374;2022-07-21T04:57:12;101838.28;;;23.60;57.10
48862;BME280;34681;49.188;-0.374;2022-07-21T04:59:38;101849.25;;;23.61;57.14
48862;BME280;34681;49.188;-0.374;2022-07-21T05:02:04;101844.31;;;23.63;57.13
48862;BME280;34681;49.188;-0.374;2022-07-21T05:04:29;101845.66;;;23.67;56.65
48862;BME280;34681;49.188;-0.374;2022-07-21T05:06:55;101849.69;;;23.65;56.90
48862;BME280;34681;49.188;-0.374;2022-07-21T05:09:21;101850.13;;;23.62;56.87
48862;BME280;34681;49.188;-0.374;2022-07-21T05:11:47;101853.34;;;23.65;56.83
48862;BME280;34681;49.188;-0.374;2022-07-21T05:14:12;101860.66;;;23.66;56.54
48862;BME280;34681;49.188;-0.374;2022-07-21T05:16:38;101852.69;;;23.63;56.49
48862;BME280;34681;49.188;-0.374;2022-07-21T05:19:03;101858.28;;;23.63;56.27
48862;BME280;34681;49.188;-0.374;2022-07-21T05:21:28;101862.81;;;23.64;56.57
48862;BME280;34681;49.188;-0.374;2022-07-21T05:23:54;101864.72;;;23.64;56.52
48862;BME280;34681;49.188;-0.374;2022-07-21T05:26:20;101866.66;;;23.63;56.11
48862;BME280;34681;49.188;-0.374;2022-07-21T05:28:46;101868.19;;;23.66;56.61
48862;BME280;34681;49.188;-0.374;2022-07-21T05:31:11;101866.97;;;23.75;56.24
48862;BME280;34681;49.188;-0.374;2022-07-21T05:33:37;101871.06;;;23.79;55.94
48862;BME280;34681;49.188;-0.374;2022-07-21T05:36:03;101869.13;;;23.79;55.61
48862;BME280;34681;49.188;-0.374;2022-07-21T05:38:29;101873.63;;;23.80;55.69
48862;BME280;34681;49.188;-0.374;2022-07-21T05:40:54;101869.81;;;23.88;54.80
48862;BME280;34681;49.188;-0.374;2022-07-21T05:43:20;101877.81;;;23.98;54.60
48862;BME280;34681;49.188;-0.374;2022-07-21T05:45:46;101878.22;;;23.95;54.88
48862;BME280;34681;49.188;-0.374;2022-07-21T05:48:11;101883.41;;;23.98;55.00
48862;BME280;34681;49.188;-0.374;2022-07-21T05:50:36;101880.81;;;23.96;54.66
48862;BME280;34681;49.188;-0.374;2022-07-21T05:53:02;101888.16;;;24.04;54.26
48862;BME280;34681;49.188;-0.374;2022-07-21T05:55:27;101881.28;;;24.06;54.31
48862;BME280;34681;49.188;-0.374;2022-07-21T05:57:53;101881.31;;;24.13;54.10
48862;BME280;34681;49.188;-0.374;2022-07-21T06:00:18;101884.16;;;24.20;53.75
48862;BME280;34681;49.188;-0.374;2022-07-21T06:02:44;101880.31;;;24.27;53.92
48862;BME280;34681;49.188;-0.374;2022-07-21T06:05:10;101885.69;;;24.29;53.83
48862;BME280;34681;49.188;-0.374;2022-07-21T06:07:36;101892.41;;;24.34;53.83
48862;BME280;34681;49.188;-0.374;2022-07-21T06:10:02;101890.41;;;24.28;53.83
48862;BME280;34681;49.188;-0.374;2022-07-21T06:12:28;101895.38;;;24.26;53.83
48862;BME280;34681;49.188;-0.374;2022-07-21T06:14:53;101899.50;;;24.37;53.41
48862;BME280;34681;49.188;-0.374;2022-07-21T06:17:20;101898.47;;;24.45;53.43
48862;BME280;34681;49.188;-0.374;2022-07-21T06:19:46;101896.75;;;24.50;53.09
48862;BME280;34681;49.188;-0.374;2022-07-21T06:22:11;101897.44;;;24.59;52.71
48862;BME280;34681;49.188;-0.374;2022-07-21T06:24:36;101906.47;;;24.61;52.72
48862;BME280;34681;49.188;-0.374;2022-07-21T06:27:02;101906.06;;;24.71;52.43
48862;BME280;34681;49.188;-0.374;2022-07-21T06:29:28;101909.94;;;24.89;51.93
48862;BME280;34681;49.188;-0.374;2022-07-21T06:31:54;101912.59;;;25.04;51.78
48862;BME280;34681;49.188;-0.374;2022-07-21T06:34:19;101917.34;;;25.10;51.74
48862;BME280;34681;49.188;-0.374;2022-07-21T06:36:45;101924.88;;;25.16;51.37
48862;BME280;34681;49.188;-0.374;2022-07-21T06:39:10;101920.13;;;25.04;51.26
48862;BME280;34681;49.188;-0.374;2022-07-21T06:41:38;101924.19;;;25.01;51.05
48862;BME280;34681;49.188;-0.374;2022-07-21T06:44:13;101922.28;;;25.08;50.88
48862;BME280;34681;49.188;-0.374;2022-07-21T06:46:38;101926.59;;;25.11;50.81
48862;BME280;34681;49.188;-0.374;2022-07-21T06:49:04;101923.78;;;25.04;50.47
48862;BME280;34681;49.188;-0.374;2022-07-21T06:51:29;101931.97;;;25.06;50.68
48862;BME280;34681;49.188;-0.374;2022-07-21T06:53:55;101933.72;;;25.20;49.86
48862;BME280;34681;49.188;-0.374;2022-07-21T06:56:20;101936.28;;;25.28;49.77
48862;BME280;34681;49.188;-0.374;2022-07-21T06:58:46;101941.44;;;25.31;49.67
48862;BME280;34681;49.188;-0.374;2022-07-21T07:01:12;101944.47;;;25.36;49.60
48862;BME280;34681;49.188;-0.374;2022-07-21T07:03:40;101944.91;;;25.27;49.53
48862;BME280;34681;49.188;-0.374;2022-07-21T07:06:06;101954.19;;;25.40;48.93
48862;BME280;34681;49.188;-0.374;2022-07-21T07:08:32;101958.28;;;25.44;48.67
48862;BME280;34681;49.188;-0.374;2022-07-21T07:10:57;101963.25;;;25.49;48.27
48862;BME280;34681;49.188;-0.374;2022-07-21T07:13:23;101961.28;;;25.63;47.88
48862;BME280;34681;49.188;-0.374;2022-07-21T07:15:48;101960.19;;;25.70;47.58
48862;BME280;34681;49.188;-0.374;2022-07-21T07:18:14;101960.41;;;25.62;47.21
48862;BME280;34681;49.188;-0.374;2022-07-21T07:20:39;101963.22;;;25.56;47.05
48862;BME280;34681;49.188;-0.374;2022-07-21T07:23:05;101973.13;;;25.45;47.13
48862;BME280;34681;49.188;-0.374;2022-07-21T07:25:30;101974.44;;;25.36;47.24
48862;BME280;34681;49.188;-0.374;2022-07-21T07:27:56;101972.28;;;25.25;47.77
48862;BME280;34681;49.188;-0.374;2022-07-21T07:30:22;101976.81;;;25.26;47.57
48862;BME280;34681;49.188;-0.374;2022-07-21T07:32:48;101978.75;;;25.25;47.32
48862;BME280;34681;49.188;-0.374;2022-07-21T07:35:14;101978.53;;;25.27;47.48
48862;BME280;34681;49.188;-0.374;2022-07-21T07:37:41;101981.97;;;25.29;47.32
48862;BME280;34681;49.188;-0.374;2022-07-21T07:40:10;101977.00;;;25.31;47.49
48862;BME280;34681;49.188;-0.374;2022-07-21T07:42:37;101984.31;;;25.32;47.10
48862;BME280;34681;49.188;-0.374;2022-07-21T07:45:03;101981.31;;;25.27;47.42
48862;BME280;34681;49.188;-0.374;2022-07-21T07:47:29;101986.09;;;25.33;47.29
48862;BME280;34681;49.188;-0.374;2022-07-21T07:49:55;101980.69;;;25.38;47.49
48862;BME280;34681;49.188;-0.374;2022-07-21T07:52:20;101981.56;;;25.58;47.30
48862;BME280;34681;49.188;-0.374;2022-07-21T07:54:46;101976.41;;;25.75;46.52
48862;BME280;34681;49.188;-0.374;2022-07-21T07:57:11;101978.94;;;25.96;46.17
48862;BME280;34681;49.188;-0.374;2022-07-21T07:59:36;101983.44;;;26.11;46.05
48862;BME280;34681;49.188;-0.374;2022-07-21T08:02:02;101986.59;;;26.34;46.12
48862;BME280;34681;49.188;-0.374;2022-07-21T08:04:28;101981.53;;;26.63;45.68
48862;BME280;34681;49.188;-0.374;2022-07-21T08:06:54;101973.44;;;26.79;45.44
48862;BME280;34681;49.188;-0.374;2022-07-21T08:09:19;101969.28;;;26.88;45.27
48862;BME280;34681;49.188;-0.374;2022-07-21T08:11:46;101963.66;;;26.88;45.21
48862;BME280;34681;49.188;-0.374;2022-07-21T08:14:13;101968.63;;;26.93;44.95
48862;BME280;34681;49.188;-0.374;2022-07-21T08:16:38;101978.53;;;26.96;44.82
48862;BME280;34681;49.188;-0.374;2022-07-21T08:19:04;101969.44;;;27.07;44.78
48862;BME280;34681;49.188;-0.374;2022-07-21T08:21:29;101967.09;;;27.29;44.31
48862;BME280;34681;49.188;-0.374;2022-07-21T08:23:56;101965.56;;;27.58;43.76
48862;BME280;34681;49.188;-0.374;2022-07-21T08:26:22;101968.63;;;27.99;42.75
48862;BME280;34681;49.188;-0.374;2022-07-21T08:28:47;101974.00;;;28.74;41.57
48862;BME280;34681;49.188;-0.374;2022-07-21T08:31:12;101972.69;;;29.19;40.93
48862;BME280;34681;49.188;-0.374;2022-07-21T08:33:38;101976.38;;;30.08;39.35
48862;BME280;34681;49.188;-0.374;2022-07-21T08:36:04;101981.16;;;32.78;35.09
48862;BME280;34681;49.188;-0.374;2022-07-21T08:38:29;101974.13;;;33.07;34.13
48862;BME280;34681;49.188;-0.374;2022-07-21T08:40:55;101978.22;;;32.89;33.41
48862;BME280;34681;49.188;-0.374;2022-07-21T08:43:21;101978.13;;;34.02;32.47
48862;BME280;34681;49.188;-0.374;2022-07-21T08:45:46;101981.22;;;35.52;30.10
48862;BME280;34681;49.188;-0.374;2022-07-21T08:48:12;101979.28;;;34.64;31.03
48862;BME280;34681;49.188;-0.374;2022-07-21T08:50:43;101981.59;;;33.77;31.55
48862;BME280;34681;49.188;-0.374;2022-07-21T08:53:08;101974.28;;;33.22;33.09
48862;BME280;34681;49.188;-0.374;2022-07-21T08:55:36;101964.88;;;32.90;33.21
48862;BME280;34681;49.188;-0.374;2022-07-21T08:58:03;101971.19;;;33.24;33.29
48862;BME280;34681;49.188;-0.374;2022-07-21T09:00:31;101960.00;;;33.39;32.57
48862;BME280;34681;49.188;-0.374;2022-07-21T09:08:36;101967.50;;;35.13;30.50
48862;BME280;34681;49.188;-0.374;2022-07-21T09:11:19;101961.16;;;34.80;31.33
48862;BME280;34681;49.188;-0.374;2022-07-21T09:13:48;101971.06;;;34.10;31.56
48862;BME280;34681;49.188;-0.374;2022-07-21T09:16:33;101955.81;;;33.84;31.47
48862;BME280;34681;49.188;-0.374;2022-07-21T09:18:59;101976.38;;;33.64;32.20
48862;BME280;34681;49.188;-0.374;2022-07-21T09:21:25;101972.59;;;33.21;33.04
48862;BME280;34681;49.188;-0.374;2022-07-21T09:23:50;101971.47;;;32.74;33.47
48862;BME280;34681;49.188;-0.374;2022-07-21T09:26:15;101972.50;;;32.40;33.51
48862;BME280;34681;49.188;-0.374;2022-07-21T09:28:41;101966.53;;;31.81;34.52
48862;BME280;34681;49.188;-0.374;2022-07-21T09:31:09;101962.47;;;31.44;34.79
48862;BME280;34681;49.188;-0.374;2022-07-21T09:33:39;101965.50;;;31.09;35.46
48862;BME280;34681;49.188;-0.374;2022-07-21T09:36:06;101967.84;;;30.83;35.87
48862;BME280;34681;49.188;-0.374;2022-07-21T09:38:35;101961.31;;;30.54;36.73
48862;BME280;34681;49.188;-0.374;2022-07-21T09:41:21;101960.75;;;30.40;36.92
48862;BME280;34681;49.188;-0.374;2022-07-21T09:43:50;101965.91;;;30.20;37.69
48862;BME280;34681;49.188;-0.374;2022-07-21T09:48:47;101970.09;;;30.29;38.12
48862;BME280;34681;49.188;-0.374;2022-07-21T09:51:31;101963.81;;;30.27;37.56
48862;BME280;34681;49.188;-0.374;2022-07-21T09:54:05;101965.13;;;30.48;37.53
48862;BME280;34681;49.188;-0.374;2022-07-21T09:56:33;101968.31;;;30.52;37.62
48862;BME280;34681;49.188;-0.374;2022-07-21T09:59:00;101969.63;;;30.72;35.83
48862;BME280;34681;49.188;-0.374;2022-07-21T10:01:27;101961.09;;;30.84;36.82
48862;BME280;34681;49.188;-0.374;2022-07-21T10:03:54;101962.31;;;30.88;36.75
48862;BME280;34681;49.188;-0.374;2022-07-21T10:06:24;101954.03;;;31.15;36.47
48862;BME280;34681;49.188;-0.374;2022-07-21T10:08:49;101954.00;;;31.27;35.93
48862;BME280;34681;49.188;-0.374;2022-07-21T10:11:15;101952.28;;;31.43;36.39
48862;BME280;34681;49.188;-0.374;2022-07-21T10:13:41;101954.50;;;31.57;36.07
48862;BME280;34681;49.188;-0.374;2022-07-21T10:16:09;101951.16;;;31.60;36.39
48862;BME280;34681;49.188;-0.374;2022-07-21T10:19:10;101942.50;;;31.67;35.98
48862;BME280;34681;49.188;-0.374;2022-07-21T10:22:48;101959.47;;;31.50;36.40
48862;BME280;34681;49.188;-0.374;2022-07-21T10:24:39;101950.81;;;31.74;35.12
48862;BME280;34681;49.188;-0.374;2022-07-21T10:27:08;101949.88;;;31.35;36.29
48862;BME280;34681;49.188;-0.374;2022-07-21T10:29:52;101954.34;;;31.30;35.54
48862;BME280;34681;49.188;-0.374;2022-07-21T10:32:20;101947.44;;;31.10;36.00
48862;BME280;34681;49.188;-0.374;2022-07-21T10:34:47;101949.06;;;30.77;36.23
48862;BME280;34681;49.188;-0.374;2022-07-21T10:40:50;101945.94;;;30.62;37.18
48862;BME280;34681;49.188;-0.374;2022-07-21T10:45:39;101945.09;;;30.21;37.93
48862;BME280;34681;49.188;-0.374;2022-07-21T10:48:06;101948.38;;;30.06;38.58
48862;BME280;34681;49.188;-0.374;2022-07-21T10:50:40;101947.53;;;30.06;38.86
48862;BME280;34681;49.188;-0.374;2022-07-21T10:53:17;101940.44;;;30.15;38.65
48862;BME280;34681;49.188;-0.374;2022-07-21T10:55:51;101938.03;;;30.35;38.80
48862;BME280;34681;49.188;-0.374;2022-07-21T11:00:52;101949.91;;;30.49;38.23
48862;BME280;34681;49.188;-0.374;2022-07-21T11:03:29;101950.56;;;30.39;38.55
48862;BME280;34681;49.188;-0.374;2022-07-21T11:08:41;101951.59;;;30.62;38.20
48862;BME280;34681;49.188;-0.374;2022-07-21T11:11:22;101953.69;;;30.55;38.76
48862;BME280;34681;49.188;-0.374;2022-07-21T11:19:45;101943.16;;;29.63;39.31
48862;BME280;34681;49.188;-0.374;2022-07-21T11:22:17;101935.81;;;29.08;39.44
48862;BME280;34681;49.188;-0.374;2022-07-21T11:24:46;101937.06;;;28.82;40.90
48862;BME280;34681;49.188;-0.374;2022-07-21T11:27:13;101935.06;;;29.01;39.61
48862;BME280;34681;49.188;-0.374;2022-07-21T11:29:41;101928.13;;;29.16;40.26
48862;BME280;34681;49.188;-0.374;2022-07-21T11:32:08;101927.91;;;29.41;40.02
48862;BME280;34681;49.188;-0.374;2022-07-21T11:37:02;101927.69;;;29.54;39.66
48862;BME280;34681;49.188;-0.374;2022-07-21T11:39:28;101933.31;;;29.54;39.68
48862;BME280;34681;49.188;-0.374;2022-07-21T11:41:53;101929.63;;;29.53;39.60
48862;BME280;34681;49.188;-0.374;2022-07-21T11:44:26;101927.00;;;29.05;39.82
48862;BME280;34681;49.188;-0.374;2022-07-21T11:46:56;101927.50;;;28.83;40.68
48862;BME280;34681;49.188;-0.374;2022-07-21T11:49:22;101927.44;;;28.42;40.87
48862;BME280;34681;49.188;-0.374;2022-07-21T11:52:08;101925.09;;;27.84;42.76
48862;BME280;34681;49.188;-0.374;2022-07-21T11:54:48;101928.22;;;27.94;42.90
48862;BME280;34681;49.188;-0.374;2022-07-21T11:57:16;101931.34;;;28.04;43.06
48862;BME280;34681;49.188;-0.374;2022-07-21T11:59:42;101930.41;;;28.10;42.77
48862;BME280;34681;49.188;-0.374;2022-07-21T12:02:12;101929.78;;;28.08;41.99
48862;BME280;34681;49.188;-0.374;2022-07-21T12:04:47;101922.75;;;27.81;42.83
48862;BME280;34681;49.188;-0.374;2022-07-21T12:09:43;101919.72;;;28.01;42.61
48862;BME280;34681;49.188;-0.374;2022-07-21T12:12:09;101926.91;;;28.15;42.53
48862;BME280;34681;49.188;-0.374;2022-07-21T12:14:46;101922.75;;;27.81;43.40
48862;BME280;34681;49.188;-0.374;2022-07-21T12:17:13;101923.22;;;27.28;44.77
48862;BME280;34681;49.188;-0.374;2022-07-21T12:19:39;101933.50;;;26.77;46.23
48862;BME280;34681;49.188;-0.374;2022-07-21T12:22:04;101928.47;;;26.86;46.28
48862;BME280;34681;49.188;-0.374;2022-07-21T12:24:54;101931.78;;;26.76;47.07
48862;BME280;34681;49.188;-0.374;2022-07-21T12:27:24;101940.25;;;27.08;46.46
48862;BME280;34681;49.188;-0.374;2022-07-21T12:29:49;101926.38;;;27.13;46.08
48862;BME280;34681;49.188;-0.374;2022-07-21T12:32:42;101929.25;;;27.00;46.41
48862;BME280;34681;49.188;-0.374;2022-07-21T12:35:20;101930.41;;;26.92;46.62
48862;BME280;34681;49.188;-0.374;2022-07-21T12:40:25;101929.31;;;26.55;47.43
48862;BME280;34681;49.188;-0.374;2022-07-21T12:43:02;101931.75;;;26.45;47.68
48862;BME280;34681;49.188;-0.374;2022-07-21T12:45:28;101922.06;;;26.34;47.33
48862;BME280;34681;49.188;-0.374;2022-07-21T12:48:21;101920.75;;;26.43;47.74
48862;BME280;34681;49.188;-0.374;2022-07-21T12:53:37;101920.16;;;27.04;46.59
48862;BME280;34681;49.188;-0.374;2022-07-21T12:56:04;101915.09;;;27.20;46.50
48862;BME280;34681;49.188;-0.374;2022-07-21T12:58:29;101919.28;;;27.35;46.21
48862;BME280;34681;49.188;-0.374;2022-07-21T13:00:55;101917.84;;;27.26;45.98
48862;BME280;34681;49.188;-0.374;2022-07-21T13:03:20;101919.97;;;26.99;45.79
48862;BME280;34681;49.188;-0.374;2022-07-21T13:05:46;101918.97;;;26.87;46.83
48862;BME280;34681;49.188;-0.374;2022-07-21T13:08:11;101914.56;;;27.04;46.84
48862;BME280;34681;49.188;-0.374;2022-07-21T13:10:36;101910.28;;;27.27;46.60
48862;BME280;34681;49.188;-0.374;2022-07-21T13:13:02;101908.50;;;27.32;46.35
48862;BME280;34681;49.188;-0.374;2022-07-21T13:15:28;101915.31;;;27.18;45.91
48862;BME280;34681;49.188;-0.374;2022-07-21T13:17:53;101918.66;;;27.08;46.45